createdAt,value
2019-05-05T00:00:11.364Z,56.70
2019-05-05T00:02:54.750Z,56.40
2019-05-05T00:05:35.815Z,56.00
2019-05-05T00:08:05.298Z,55.90
2019-05-05T00:10:54.180Z,55.90
2019-05-05T00:13:30.372Z,55.70
2019-05-05T00:16:36.601Z,55.80
2019-05-05T00:19:05.988Z,56.00
2019-05-05T00:21:35.121Z,56.90
2019-05-05T00:24:04.699Z,56.20
2019-05-05T00:26:34.880Z,56.00
2019-05-05T00:29:04.467Z,55.40
2019-05-05T00:31:34.929Z,55.30
2019-05-05T00:34:05.108Z,55.60
2019-05-05T00:36:35.240Z,55.50
2019-05-05T00:39:09.300Z,55.40
2019-05-05T00:41:38.405Z,55.40
2019-05-05T00:44:07.645Z,55.10
2019-05-05T00:46:55.039Z,55.10
2019-05-05T00:49:25.511Z,55.20
2019-05-05T00:51:55.286Z,56.00
2019-05-05T00:54:24.622Z,56.30
2019-05-05T00:56:54.505Z,57.80
2019-05-05T00:59:25.823Z,56.50
2019-05-05T01:02:12.526Z,56.00
2019-05-05T01:04:50.155Z,55.80
2019-05-05T01:07:21.362Z,55.90
2019-05-05T01:09:50.537Z,56.30
2019-05-05T01:12:19.673Z,56.00
2019-05-05T01:14:48.903Z,56.10
2019-05-05T01:17:18.045Z,57.50
2019-05-05T01:20:00.279Z,56.90
2019-05-05T01:22:18.117Z,58.00
2019-05-05T01:24:49.739Z,58.10
2019-05-05T01:27:19.038Z,57.70
2019-05-05T01:29:48.343Z,57.40
2019-05-05T01:32:24.597Z,57.30
2019-05-05T01:34:54.963Z,57.60
2019-05-05T01:37:31.089Z,58.50
2019-05-05T01:40:22.253Z,58.70
2019-05-05T01:42:51.543Z,61.80
2019-05-05T01:45:20.727Z,60.60
2019-05-05T01:47:49.939Z,60.10
2019-05-05T01:50:21.416Z,60.00
2019-05-05T01:52:49.971Z,59.00
2019-05-05T01:55:19.138Z,58.20
2019-05-05T01:57:48.279Z,57.70
2019-05-05T02:00:18.940Z,57.40
2019-05-05T02:02:48.116Z,57.00
2019-05-05T02:05:17.310Z,56.80
2019-05-05T02:07:46.433Z,56.60
2019-05-05T02:10:15.699Z,56.60
2019-05-05T02:12:44.903Z,56.50
2019-05-05T02:15:15.552Z,56.30
2019-05-05T02:17:44.792Z,56.40
2019-05-05T02:20:40.437Z,56.40
2019-05-05T02:23:11.394Z,56.30
2019-05-05T02:25:40.916Z,56.60
2019-05-05T02:28:10.054Z,56.60
2019-05-05T02:30:46.571Z,56.60
2019-05-05T02:33:16.232Z,56.40
2019-05-05T02:35:46.073Z,56.10
2019-05-05T02:38:15.919Z,56.40
2019-05-05T02:40:47.297Z,56.30
2019-05-05T02:43:18.925Z,56.40
2019-05-05T02:46:07.165Z,56.60
2019-05-05T02:48:37.423Z,57.20
2019-05-05T02:51:08.297Z,57.40
2019-05-05T02:53:45.314Z,58.00
2019-05-05T02:56:20.622Z,57.80
2019-05-05T02:58:53.762Z,57.90
2019-05-05T03:01:44.460Z,57.60
2019-05-05T03:04:14.218Z,57.80
2019-05-05T03:06:48.562Z,57.60
2019-05-05T03:09:19.308Z,58.00
2019-05-05T03:11:50.234Z,57.80
2019-05-05T03:14:23.694Z,57.90
2019-05-05T03:16:54.460Z,58.50
2019-05-05T03:19:28.143Z,58.90
2019-05-05T03:21:57.382Z,60.50
2019-05-05T03:24:27.946Z,60.20
2019-05-05T03:26:57.787Z,60.50
2019-05-05T03:29:26.939Z,62.20
2019-05-05T03:31:57.607Z,63.80
2019-05-05T03:34:26.882Z,63.70
2019-05-05T03:36:56.208Z,61.60
2019-05-05T03:39:27.752Z,62.50
2019-05-05T03:42:28.947Z,61.90
2019-05-05T03:45:01.436Z,60.80
2019-05-05T03:47:33.688Z,60.20
2019-05-05T03:50:04.420Z,59.80
2019-05-05T04:04:24.334Z,58.80
2019-05-05T04:07:08.513Z,60.40
2019-05-05T04:09:39.730Z,60.60
2019-05-05T04:12:09.284Z,62.10
2019-05-05T04:15:40.248Z,61.20
2019-05-05T04:19:06.015Z,60.60
2019-05-05T04:22:13.390Z,60.30
2019-05-05T04:24:54.244Z,60.10
2019-05-05T04:27:34.286Z,59.90
2019-05-05T04:30:04.179Z,59.50
2019-05-05T04:32:34.826Z,59.30
2019-05-05T04:35:04.207Z,59.60
2019-05-05T04:37:34.133Z,59.60
2019-05-05T04:40:04.209Z,59.40
2019-05-05T04:42:33.795Z,59.40
2019-05-05T04:45:04.267Z,60.00
2019-05-05T04:47:36.452Z,59.80
2019-05-05T04:50:27.979Z,59.60
2019-05-05T04:52:58.778Z,59.70
2019-05-05T04:55:28.047Z,59.10
2019-05-05T04:57:57.332Z,59.80
2019-05-05T05:00:26.721Z,59.70
2019-05-05T05:03:08.975Z,60.30
2019-05-05T05:05:56.252Z,60.90
2019-05-05T05:08:25.767Z,62.10
2019-05-05T05:10:55.107Z,60.90
2019-05-05T05:13:24.655Z,61.00
2019-05-05T05:15:54.401Z,61.50
2019-05-05T05:18:24.182Z,61.00
2019-05-05T05:20:54.941Z,61.10
2019-05-05T05:23:24.898Z,61.10
2019-05-05T05:25:54.615Z,60.80
2019-05-05T05:28:24.702Z,61.60
2019-05-05T05:30:54.533Z,62.70
2019-05-05T05:33:25.757Z,61.50
2019-05-05T05:35:54.988Z,60.70
2019-05-05T05:38:24.725Z,61.10
2019-05-05T05:41:06.520Z,60.30
2019-05-05T05:43:54.812Z,60.00
2019-05-05T05:46:45.873Z,59.60
2019-05-05T05:49:34.686Z,59.20
2019-05-05T05:52:13.303Z,60.50
2019-05-05T05:54:35.256Z,61.20
2019-05-05T05:57:04.601Z,59.60
2019-05-05T05:59:34.104Z,60.70
2019-05-05T06:02:09.793Z,60.30
2019-05-05T06:04:34.329Z,60.60
2019-05-05T06:07:04.164Z,60.80
2019-05-05T06:09:34.423Z,59.50
2019-05-05T06:12:03.971Z,60.30
2019-05-05T06:14:34.077Z,60.90
2019-05-05T06:17:04.371Z,62.50
2019-05-05T06:19:33.993Z,63.30
2019-05-05T06:22:03.627Z,64.40
2019-05-05T06:24:34.589Z,64.50
2019-05-05T06:27:04.122Z,63.60
2019-05-05T06:29:34.509Z,63.10
2019-05-05T06:32:04.646Z,62.60
2019-05-05T06:34:34.037Z,61.10
2019-05-05T06:37:04.213Z,60.40
2019-05-05T06:39:34.386Z,60.60
2019-05-05T06:42:17.766Z,60.30
2019-05-05T06:44:56.922Z,59.70
2019-05-05T06:47:44.564Z,60.00
2019-05-05T06:50:14.597Z,59.60
2019-05-05T06:52:46.954Z,59.70
2019-05-05T06:55:14.842Z,59.70
2019-05-05T06:57:44.483Z,59.60
2019-05-05T07:00:14.719Z,59.50
2019-05-05T07:02:44.480Z,59.60
2019-05-05T07:05:14.436Z,59.60
2019-05-05T07:07:43.818Z,60.40
2019-05-05T07:10:14.085Z,61.30
2019-05-05T07:12:44.062Z,60.40
2019-05-05T07:15:14.643Z,60.40
2019-05-05T07:17:44.317Z,60.00
2019-05-05T07:20:13.968Z,60.00
2019-05-05T07:22:58.050Z,60.00
2019-05-05T07:25:14.143Z,59.80
2019-05-05T07:27:44.286Z,59.70
2019-05-05T07:30:14.816Z,59.70
2019-05-05T07:32:44.345Z,59.80
2019-05-05T07:35:19.708Z,60.10
2019-05-05T07:37:48.886Z,59.40
2019-05-05T07:40:18.156Z,59.30
2019-05-05T07:42:47.555Z,59.00
2019-05-05T07:45:22.117Z,58.90
2019-05-05T07:47:48.172Z,59.20
2019-05-05T07:50:28.966Z,59.00
2019-05-05T07:52:48.381Z,58.80
2019-05-05T07:55:17.774Z,58.80
2019-05-05T07:57:47.189Z,58.30
2019-05-05T08:00:16.594Z,58.20
2019-05-05T08:02:45.882Z,58.10
2019-05-05T08:05:15.566Z,57.90
2019-05-05T08:07:44.930Z,57.70
2019-05-05T08:10:16.751Z,57.00
2019-05-05T08:12:46.110Z,56.80
2019-05-05T08:15:17.411Z,56.20
2019-05-05T08:18:04.696Z,55.40
2019-05-05T08:20:37.513Z,55.80
2019-05-05T08:23:09.891Z,56.30
2019-05-05T08:25:54.113Z,56.30
2019-05-05T08:28:34.195Z,56.40
2019-05-05T08:31:17.087Z,57.00
2019-05-05T08:33:46.460Z,57.20
2019-05-05T08:36:15.777Z,57.60
2019-05-05T08:38:47.416Z,57.80
2019-05-05T08:41:16.819Z,57.90
2019-05-05T08:43:46.088Z,58.20
2019-05-05T08:46:15.386Z,58.00
2019-05-05T08:48:44.840Z,58.30
2019-05-05T08:51:14.272Z,57.90
2019-05-05T08:53:47.842Z,58.20
2019-05-05T08:56:14.793Z,58.00
2019-05-05T08:58:44.106Z,58.40
2019-05-05T09:01:14.956Z,58.10
2019-05-05T09:03:44.546Z,57.50
2019-05-05T09:06:13.969Z,57.30
2019-05-05T09:08:44.095Z,56.90
2019-05-05T09:11:14.172Z,56.60
2019-05-05T09:13:44.634Z,56.90
2019-05-05T09:16:14.723Z,55.90
2019-05-05T09:19:15.173Z,55.10
2019-05-05T09:21:44.847Z,54.80
2019-05-05T09:24:20.001Z,54.50
2019-05-05T09:26:56.943Z,55.30
2019-05-05T09:29:32.159Z,54.80
2019-05-05T09:32:01.523Z,54.50
2019-05-05T09:34:30.842Z,54.40
2019-05-05T09:37:01.044Z,53.40
2019-05-05T09:39:30.677Z,53.70
2019-05-05T09:42:00.000Z,52.80
2019-05-05T09:44:29.448Z,52.00
2019-05-05T09:46:58.725Z,51.90
2019-05-05T09:49:27.899Z,51.20
2019-05-05T09:51:57.191Z,50.30
2019-05-05T09:54:26.505Z,51.20
2019-05-05T09:56:57.539Z,51.00
2019-05-05T09:59:26.861Z,50.10
2019-05-05T10:01:56.245Z,50.10
2019-05-05T10:04:30.128Z,49.90
2019-05-05T10:06:59.423Z,50.70
2019-05-05T10:09:28.781Z,49.50
2019-05-05T10:11:58.085Z,50.80
2019-05-05T10:14:27.359Z,50.40
2019-05-05T10:16:56.621Z,50.30
2019-05-05T10:19:25.939Z,49.20
2019-05-05T10:21:55.255Z,50.10
2019-05-05T10:24:31.173Z,49.60
2019-05-05T10:27:01.061Z,49.20
2019-05-05T10:29:30.341Z,50.10
2019-05-05T10:31:59.685Z,47.30
2019-05-05T10:34:33.422Z,47.70
2019-05-05T10:37:09.819Z,46.60
2019-05-05T10:39:44.044Z,45.50
2019-05-05T10:42:14.567Z,46.90
2019-05-05T10:44:44.830Z,47.70
2019-05-05T10:47:14.474Z,47.50
2019-05-05T10:49:44.249Z,48.00
2019-05-05T10:52:14.494Z,43.90
2019-05-05T10:54:44.866Z,46.50
2019-05-05T10:57:16.629Z,45.10
2019-05-05T10:59:45.488Z,46.30
2019-05-05T11:02:14.823Z,45.60
2019-05-05T11:04:44.389Z,45.60
2019-05-05T11:07:14.602Z,44.40
2019-05-05T11:09:44.649Z,42.20
2019-05-05T11:12:14.430Z,44.40
2019-05-05T11:14:44.502Z,44.50
2019-05-05T11:17:14.544Z,43.80
2019-05-05T11:19:44.372Z,44.80
2019-05-05T11:22:14.657Z,43.90
2019-05-05T11:24:57.331Z,44.60
2019-05-05T11:27:15.578Z,43.70
2019-05-05T11:30:03.952Z,43.50
2019-05-05T11:32:50.927Z,42.80
2019-05-05T11:35:24.438Z,43.60
2019-05-05T11:37:54.453Z,43.30
2019-05-05T11:40:32.849Z,43.10
2019-05-05T11:43:03.784Z,42.30
2019-05-05T11:45:34.468Z,42.20
2019-05-05T11:48:06.068Z,42.40
2019-05-05T11:50:35.448Z,41.80
2019-05-05T11:53:09.336Z,41.90
2019-05-05T11:55:38.725Z,41.90
2019-05-05T11:58:07.978Z,41.30
2019-05-05T12:00:37.251Z,41.70
2019-05-05T12:03:06.844Z,41.50
2019-05-05T12:05:36.265Z,41.30
2019-05-05T12:08:05.659Z,40.50
2019-05-05T12:10:57.050Z,41.50
2019-05-05T12:13:26.484Z,40.30
2019-05-05T12:16:04.569Z,40.20
2019-05-05T12:18:34.586Z,38.50
2019-05-05T12:21:05.127Z,40.00
2019-05-05T12:23:34.822Z,40.40
2019-05-05T12:26:30.097Z,40.30
2019-05-05T12:29:30.041Z,41.10
2019-05-05T12:31:59.397Z,41.10
2019-05-05T12:34:28.796Z,41.20
2019-05-05T12:36:58.300Z,40.80
2019-05-05T12:39:27.694Z,40.90
2019-05-05T12:41:56.967Z,41.40
2019-05-05T12:44:34.113Z,41.60
2019-05-05T12:47:21.310Z,42.10
2019-05-05T12:49:50.591Z,42.00
2019-05-05T12:52:19.902Z,42.00
2019-05-05T12:54:49.285Z,41.90
2019-05-05T12:57:18.614Z,42.20
2019-05-05T12:59:47.920Z,41.80
2019-05-05T13:02:17.319Z,42.20
2019-05-05T13:04:46.594Z,41.90
2019-05-05T13:07:15.892Z,42.10
2019-05-05T13:09:45.288Z,42.20
2019-05-05T13:12:15.117Z,40.70
2019-05-05T13:14:45.086Z,41.30
2019-05-05T13:17:14.402Z,41.60
2019-05-05T13:19:56.306Z,41.90
2019-05-05T13:22:44.574Z,42.20
2019-05-05T13:25:55.201Z,42.80
2019-05-05T13:28:16.018Z,43.20
2019-05-05T13:30:45.583Z,43.60
2019-05-05T13:33:14.843Z,44.40
2019-05-05T13:35:44.123Z,45.10
2019-05-05T13:38:14.578Z,45.10
2019-05-05T13:40:44.076Z,45.70
2019-05-05T13:43:14.471Z,45.40
2019-05-05T13:46:05.679Z,45.30
2019-05-05T13:48:35.069Z,45.70
2019-05-05T13:51:05.794Z,45.60
2019-05-05T13:53:38.025Z,45.50
2019-05-05T13:56:12.029Z,45.30
2019-05-05T13:58:38.611Z,45.30
2019-05-05T14:01:09.838Z,45.40
2019-05-05T14:03:39.310Z,45.40
2019-05-05T14:06:08.712Z,44.80
2019-05-05T14:08:38.035Z,44.40
2019-05-05T14:11:07.307Z,44.20
2019-05-05T14:13:38.633Z,44.00
2019-05-05T14:16:10.400Z,43.70
2019-05-05T14:18:39.775Z,43.30
2019-05-05T14:21:09.069Z,43.50
2019-05-05T14:24:14.346Z,43.80
2019-05-05T14:26:43.549Z,44.20
2019-05-05T14:29:14.803Z,44.10
2019-05-05T14:31:44.479Z,44.20
2019-05-05T14:34:21.179Z,43.50
2019-05-05T14:37:11.165Z,43.80
2019-05-05T14:39:40.611Z,43.70
2019-05-05T14:42:09.935Z,43.10
2019-05-05T14:44:39.219Z,42.80
2019-05-05T14:47:08.728Z,42.70
2019-05-05T14:49:38.336Z,42.40
2019-05-05T14:52:07.783Z,42.50
2019-05-05T14:54:37.145Z,43.40
2019-05-05T14:57:06.489Z,42.20
2019-05-05T14:59:37.046Z,42.20
2019-05-05T15:02:06.678Z,42.00
2019-05-05T15:04:37.761Z,41.60
2019-05-05T15:07:37.865Z,42.40
2019-05-05T15:10:41.024Z,42.80
2019-05-05T15:13:11.484Z,42.70
2019-05-05T15:15:42.280Z,41.70
2019-05-05T15:18:11.523Z,42.60
2019-05-05T15:20:44.023Z,42.30
2019-05-05T15:23:13.566Z,42.10
2019-05-05T15:25:44.604Z,42.30
2019-05-05T15:28:13.959Z,42.30
2019-05-05T15:30:44.101Z,41.90
2019-05-05T15:33:13.938Z,42.40
2019-05-05T15:35:46.500Z,42.00
2019-05-05T15:38:15.497Z,42.70
2019-05-05T15:40:47.792Z,43.40
2019-05-05T15:43:15.952Z,42.60
2019-05-05T15:45:45.858Z,43.50
2019-05-05T15:48:16.124Z,44.00
2019-05-05T15:50:45.447Z,43.40
2019-05-05T15:53:15.970Z,43.60
2019-05-05T15:55:45.371Z,43.60
2019-05-05T15:58:14.746Z,43.50
2019-05-05T16:00:44.386Z,42.70
2019-05-05T16:03:13.767Z,43.30
2019-05-05T16:05:43.637Z,43.20
2019-05-05T16:08:14.119Z,42.70
2019-05-05T16:10:46.609Z,43.10
2019-05-05T16:13:15.017Z,43.10
2019-05-05T16:16:05.355Z,41.20
2019-05-05T16:19:05.299Z,42.20
2019-05-05T16:22:04.408Z,42.30
2019-05-05T16:24:36.503Z,43.30
2019-05-05T16:27:18.625Z,43.50
2019-05-05T16:29:37.080Z,43.50
2019-05-05T16:32:18.401Z,43.60
2019-05-05T16:34:37.503Z,43.40
2019-05-05T16:37:06.908Z,44.00
2019-05-05T16:39:36.182Z,43.80
2019-05-05T16:42:05.475Z,44.20
2019-05-05T16:44:34.829Z,45.40
2019-05-05T16:47:04.720Z,45.30
2019-05-05T16:49:35.511Z,45.50
2019-05-05T16:52:10.825Z,45.60
2019-05-05T16:55:01.099Z,45.60
2019-05-05T16:57:33.884Z,45.70
2019-05-05T17:00:01.764Z,45.70
2019-05-05T17:02:31.133Z,46.10
2019-05-05T17:05:00.520Z,45.10
2019-05-05T17:07:29.702Z,46.10
2019-05-05T17:09:58.909Z,46.30
2019-05-05T17:12:28.142Z,46.40
2019-05-05T17:15:19.456Z,46.50
2019-05-05T17:18:32.987Z,46.20
2019-05-05T17:21:06.045Z,46.50
2019-05-05T17:23:35.347Z,46.70
2019-05-05T17:26:04.668Z,46.90
2019-05-05T17:28:34.081Z,47.00
2019-05-05T17:31:03.393Z,47.00
2019-05-05T17:33:33.891Z,46.30
2019-05-05T17:36:04.610Z,46.60
2019-05-05T17:38:34.305Z,46.30
2019-05-05T17:41:20.290Z,46.00
2019-05-05T17:43:58.264Z,46.50
2019-05-05T17:46:38.609Z,45.60
2019-05-05T17:49:26.975Z,46.00
2019-05-05T17:52:03.672Z,46.70
2019-05-05T17:54:35.817Z,46.70
2019-05-05T17:57:05.079Z,46.50
2019-05-05T17:59:34.356Z,46.30
2019-05-05T18:02:04.801Z,45.70
2019-05-05T18:04:34.302Z,46.00
2019-05-05T18:07:11.713Z,45.60
2019-05-05T18:09:58.711Z,46.30
2019-05-05T18:12:39.427Z,46.20
2019-05-05T18:15:11.247Z,47.10
2019-05-05T18:17:40.597Z,46.30
2019-05-05T18:20:09.900Z,47.20
2019-05-05T18:22:39.133Z,46.00
2019-05-05T18:25:08.452Z,46.50
2019-05-05T18:27:37.799Z,47.30
2019-05-05T18:30:07.739Z,47.00
2019-05-05T18:32:37.035Z,46.10
2019-05-05T18:35:06.878Z,47.30
2019-05-05T18:37:36.781Z,46.70
2019-05-05T18:40:06.224Z,47.10
2019-05-05T18:42:35.708Z,46.80
2019-05-05T18:45:09.090Z,46.70
2019-05-05T18:47:38.289Z,47.60
2019-05-05T18:50:07.956Z,47.40
2019-05-05T18:52:37.253Z,47.00
2019-05-05T18:55:07.188Z,46.80
2019-05-05T18:57:36.400Z,47.30
2019-05-05T19:00:08.832Z,47.70
2019-05-05T19:02:46.640Z,47.60
2019-05-05T19:05:41.079Z,47.20
2019-05-05T19:08:29.483Z,47.60
2019-05-05T19:10:59.449Z,47.70
2019-05-05T19:13:28.719Z,47.60
2019-05-05T19:15:58.101Z,47.80
2019-05-05T19:18:27.438Z,48.00
2019-05-05T19:21:15.447Z,48.10
2019-05-05T19:23:44.811Z,48.10
2019-05-05T19:26:14.583Z,48.30
2019-05-05T19:28:49.879Z,48.00
2019-05-05T19:31:15.705Z,48.20
2019-05-05T19:33:45.085Z,48.90
2019-05-05T19:36:14.389Z,48.40
2019-05-05T19:38:44.133Z,48.60
2019-05-05T19:41:14.450Z,48.90
2019-05-05T19:43:54.827Z,48.70
2019-05-05T19:46:30.111Z,48.90
2019-05-05T19:49:15.301Z,49.00
2019-05-05T19:51:45.610Z,49.10
2019-05-05T19:54:15.000Z,48.90
2019-05-05T19:56:44.737Z,48.60
2019-05-05T19:59:14.778Z,48.60
2019-05-05T20:01:45.000Z,49.00
2019-05-05T20:04:14.795Z,48.60
2019-05-05T20:06:44.605Z,48.80
2019-05-05T20:09:14.247Z,48.70
2019-05-05T20:11:44.294Z,49.00
2019-05-05T20:14:15.268Z,48.70
2019-05-05T20:17:04.505Z,49.00
2019-05-05T20:19:45.416Z,49.00
2019-05-05T20:22:14.886Z,49.10
2019-05-05T20:24:44.431Z,49.20
2019-05-05T20:27:14.123Z,49.60
2019-05-05T20:29:43.658Z,49.40
2019-05-05T20:32:13.902Z,49.50
2019-05-05T20:34:50.723Z,49.50
2019-05-05T20:37:23.579Z,49.50
2019-05-05T20:39:54.489Z,49.50
2019-05-05T20:42:23.955Z,49.80
2019-05-05T20:44:54.448Z,50.10
2019-05-05T20:47:26.320Z,50.80
2019-05-05T20:49:55.637Z,50.40
2019-05-05T20:52:24.890Z,50.20
2019-05-05T20:54:54.202Z,50.30
2019-05-05T20:57:23.558Z,50.40
2019-05-05T20:59:52.838Z,50.10
2019-05-05T21:02:24.240Z,49.60
2019-05-05T21:04:54.096Z,49.70
2019-05-05T21:07:26.493Z,49.60
2019-05-05T21:09:54.558Z,49.60
2019-05-05T21:12:24.617Z,49.40
2019-05-05T21:14:54.949Z,49.80
2019-05-05T21:17:24.314Z,49.60
2019-05-05T21:19:53.649Z,49.50
2019-05-05T21:22:47.548Z,49.50
2019-05-05T21:25:25.908Z,49.30
2019-05-05T21:27:55.209Z,49.50
2019-05-05T21:30:24.556Z,49.60
2019-05-05T21:32:54.636Z,49.70
2019-05-05T21:35:24.514Z,49.80
2019-05-05T21:37:56.682Z,49.30
2019-05-05T21:40:26.769Z,49.60
2019-05-05T21:42:56.055Z,49.70
2019-05-05T21:45:25.342Z,49.70
2019-05-05T21:47:55.058Z,49.80
2019-05-05T21:50:33.893Z,49.80
2019-05-05T21:53:25.456Z,50.00
2019-05-05T21:56:04.586Z,50.10
2019-05-05T21:58:38.668Z,50.30
2019-05-05T22:01:14.840Z,50.20
2019-05-05T22:03:44.492Z,50.30
2019-05-05T22:06:14.638Z,50.20
2019-05-05T22:08:43.994Z,50.00
2019-05-05T22:11:14.664Z,49.80
2019-05-05T22:13:44.455Z,50.20
2019-05-05T22:16:13.833Z,50.10
2019-05-05T22:18:46.354Z,50.20
2019-05-05T22:21:25.823Z,50.00
2019-05-05T22:24:16.068Z,50.10
2019-05-05T22:26:46.252Z,50.20
2019-05-05T22:29:17.050Z,50.20
2019-05-05T22:31:46.639Z,50.20
2019-05-05T22:34:15.861Z,50.10
2019-05-05T22:36:45.197Z,50.10
2019-05-05T22:39:17.024Z,49.90
2019-05-05T22:41:45.794Z,50.00
2019-05-05T22:44:15.093Z,50.20
2019-05-05T22:46:44.386Z,50.20
2019-05-05T22:49:14.741Z,50.20
2019-05-05T22:51:44.847Z,50.20
2019-05-05T22:54:15.048Z,50.20
2019-05-05T22:56:44.932Z,50.20
2019-05-05T22:59:14.277Z,50.20
2019-05-05T23:01:44.256Z,50.50
2019-05-05T23:04:35.645Z,50.20
2019-05-05T23:07:14.419Z,50.20
2019-05-05T23:09:44.379Z,50.10
2019-05-05T23:12:14.139Z,50.40
2019-05-05T23:14:43.790Z,50.20
2019-05-05T23:17:34.927Z,50.20
2019-05-05T23:20:16.799Z,50.10
2019-05-05T23:23:08.074Z,50.40
2019-05-05T23:25:40.563Z,50.70
2019-05-05T23:28:09.767Z,50.00
2019-05-05T23:30:41.832Z,50.10
2019-05-05T23:33:10.139Z,50.20
2019-05-05T23:35:39.639Z,50.30
2019-05-05T23:38:08.906Z,50.30
2019-05-05T23:40:38.233Z,50.50
2019-05-05T23:43:07.699Z,50.40
2019-05-05T23:45:37.641Z,50.70
2019-05-05T23:48:06.963Z,50.40
2019-05-05T23:50:36.269Z,50.30
2019-05-05T23:53:05.567Z,50.40
2019-05-05T23:55:34.902Z,50.70
2019-05-05T23:58:04.206Z,50.30
